sensor_id;sensor_type;location;lat;lon;timestamp;P1;durP1;ratioP1;P2;durP2;ratioP2
37321;SDS011;23697;48.684;9.032;2023-08-31T05:42:43;7.80;;;4.63;;
37321;SDS011;23697;48.684;9.032;2023-08-31T05:45:12;8.43;;;4.25;;
37321;SDS011;23697;48.684;9.032;2023-08-31T05:47:40;10.15;;;4.50;;
37321;SDS011;23697;48.684;9.032;2023-08-31T05:50:07;7.43;;;4.22;;
37321;SDS011;23697;48.684;9.032;2023-08-31T05:52:34;7.72;;;4.15;;
37321;SDS011;23697;48.684;9.032;2023-08-31T05:55:14;9.55;;;4.45;;
37321;SDS011;23697;48.684;9.032;2023-08-31T05:58:03;8.13;;;4.13;;
37321;SDS011;23697;48.684;9.032;2023-08-31T06:00:30;9.98;;;5.40;;
37321;SDS011;23697;48.684;9.032;2023-08-31T06:02:57;10.05;;;5.30;;
37321;SDS011;23697;48.684;9.032;2023-08-31T06:08:09;7.82;;;4.43;;
37321;SDS011;23697;48.684;9.032;2023-08-31T06:10:38;13.75;;;4.47;;
37321;SDS011;23697;48.684;9.032;2023-08-31T06:13:07;10.57;;;4.63;;
37321;SDS011;23697;48.684;9.032;2023-08-31T06:15:34;8.25;;;4.22;;
37321;SDS011;23697;48.684;9.032;2023-08-31T06:18:09;7.32;;;4.07;;
37321;SDS011;23697;48.684;9.032;2023-08-31T06:23:44;10.00;;;4.40;;
37321;SDS011;23697;48.684;9.032;2023-08-31T06:27:37;8.63;;;4.78;;
37321;SDS011;23697;48.684;9.032;2023-08-31T06:29:31;7.78;;;4.30;;
37321;SDS011;23697;48.684;9.032;2023-08-31T06:32:01;9.07;;;4.05;;
37321;SDS011;23697;48.684;9.032;2023-08-31T06:37:30;6.60;;;3.92;;
37321;SDS011;23697;48.684;9.032;2023-08-31T06:40:05;9.27;;;4.05;;
37321;SDS011;23697;48.684;9.032;2023-08-31T06:45:32;8.20;;;4.10;;
37321;SDS011;23697;48.684;9.032;2023-08-31T06:48:02;8.88;;;4.05;;
37321;SDS011;23697;48.684;9.032;2023-08-31T06:50:29;10.80;;;5.10;;
37321;SDS011;23697;48.684;9.032;2023-08-31T06:52:56;9.40;;;3.95;;
37321;SDS011;23697;48.684;9.032;2023-08-31T06:55:26;8.10;;;4.03;;
37321;SDS011;23697;48.684;9.032;2023-08-31T06:57:53;7.55;;;4.18;;
37321;SDS011;23697;48.684;9.032;2023-08-31T07:00:22;8.13;;;3.83;;
37321;SDS011;23697;48.684;9.032;2023-08-31T07:02:51;7.97;;;3.42;;
37321;SDS011;23697;48.684;9.032;2023-08-31T07:05:25;10.52;;;3.20;;
37321;SDS011;23697;48.684;9.032;2023-08-31T07:07:54;7.57;;;3.30;;
37321;SDS011;23697;48.684;9.032;2023-08-31T07:10:21;10.10;;;3.70;;
37321;SDS011;23697;48.684;9.032;2023-08-31T07:12:50;9.75;;;3.05;;
37321;SDS011;23697;48.684;9.032;2023-08-31T07:15:17;9.43;;;3.55;;
37321;SDS011;23697;48.684;9.032;2023-08-31T07:17:44;7.50;;;3.20;;
37321;SDS011;23697;48.684;9.032;2023-08-31T07:20:13;7.75;;;3.13;;
37321;SDS011;23697;48.684;9.032;2023-08-31T07:22:40;8.73;;;2.80;;
37321;SDS011;23697;48.684;9.032;2023-08-31T07:25:07;8.55;;;2.97;;
37321;SDS011;23697;48.684;9.032;2023-08-31T07:27:34;5.90;;;3.13;;
37321;SDS011;23697;48.684;9.032;2023-08-31T07:30:01;6.07;;;2.45;;
37321;SDS011;23697;48.684;9.032;2023-08-31T07:32:29;7.50;;;2.83;;
37321;SDS011;23697;48.684;9.032;2023-08-31T07:34:56;8.13;;;2.70;;
37321;SDS011;23697;48.684;9.032;2023-08-31T07:37:24;6.10;;;2.72;;
37321;SDS011;23697;48.684;9.032;2023-08-31T07:39:51;10.43;;;2.80;;
37321;SDS011;23697;48.684;9.032;2023-08-31T07:42:17;7.20;;;2.80;;
37321;SDS011;23697;48.684;9.032;2023-08-31T07:44:44;7.82;;;2.78;;
37321;SDS011;23697;48.684;9.032;2023-08-31T07:47:11;5.30;;;2.88;;
37321;SDS011;23697;48.684;9.032;2023-08-31T07:49:38;6.70;;;3.00;;
37321;SDS011;23697;48.684;9.032;2023-08-31T07:52:05;8.43;;;2.90;;
37321;SDS011;23697;48.684;9.032;2023-08-31T07:54:33;6.70;;;2.70;;
37321;SDS011;23697;48.684;9.032;2023-08-31T07:57:01;9.10;;;3.03;;
37321;SDS011;23697;48.684;9.032;2023-08-31T07:59:28;8.02;;;2.80;;
37321;SDS011;23697;48.684;9.032;2023-08-31T08:01:55;6.07;;;2.65;;
37321;SDS011;23697;48.684;9.032;2023-08-31T08:04:29;7.95;;;2.60;;
37321;SDS011;23697;48.684;9.032;2023-08-31T08:06:59;7.25;;;2.28;;
37321;SDS011;23697;48.684;9.032;2023-08-31T08:09:31;8.13;;;2.50;;
37321;SDS011;23697;48.684;9.032;2023-08-31T08:11:59;5.47;;;2.38;;
37321;SDS011;23697;48.684;9.032;2023-08-31T08:14:26;5.80;;;2.30;;
37321;SDS011;23697;48.684;9.032;2023-08-31T08:16:53;8.45;;;2.80;;
37321;SDS011;23697;48.684;9.032;2023-08-31T08:19:23;8.18;;;2.50;;
37321;SDS011;23697;48.684;9.032;2023-08-31T08:21:50;6.65;;;2.33;;
37321;SDS011;23697;48.684;9.032;2023-08-31T08:24:17;6.97;;;2.78;;
37321;SDS011;23697;48.684;9.032;2023-08-31T08:26:44;5.15;;;2.40;;
37321;SDS011;23697;48.684;9.032;2023-08-31T08:29:12;5.22;;;2.33;;
37321;SDS011;23697;48.684;9.032;2023-08-31T08:31:41;5.38;;;2.38;;
37321;SDS011;23697;48.684;9.032;2023-08-31T08:34:13;7.03;;;2.67;;
37321;SDS011;23697;48.684;9.032;2023-08-31T08:36:42;4.78;;;2.30;;
37321;SDS011;23697;48.684;9.032;2023-08-31T08:39:09;9.48;;;2.70;;
37321;SDS011;23697;48.684;9.032;2023-08-31T08:41:37;4.97;;;2.38;;
37321;SDS011;23697;48.684;9.032;2023-08-31T08:44:16;5.00;;;2.50;;
37321;SDS011;23697;48.684;9.032;2023-08-31T08:46:44;7.85;;;2.20;;
37321;SDS011;23697;48.684;9.032;2023-08-31T08:49:13;5.28;;;2.58;;
37321;SDS011;23697;48.684;9.032;2023-08-31T08:52:02;6.72;;;2.65;;
37321;SDS011;23697;48.684;9.032;2023-08-31T08:54:32;6.22;;;2.58;;
37321;SDS011;23697;48.684;9.032;2023-08-31T08:57:00;6.60;;;2.47;;
37321;SDS011;23697;48.684;9.032;2023-08-31T08:59:58;7.07;;;2.60;;
37321;SDS011;23697;48.684;9.032;2023-08-31T09:02:59;5.55;;;2.38;;
37321;SDS011;23697;48.684;9.032;2023-08-31T09:05:31;7.63;;;2.50;;
37321;SDS011;23697;48.684;9.032;2023-08-31T09:08:00;6.97;;;2.80;;
37321;SDS011;23697;48.684;9.032;2023-08-31T09:10:48;7.10;;;2.50;;
37321;SDS011;23697;48.684;9.032;2023-08-31T09:13:15;7.25;;;2.75;;
37321;SDS011;23697;48.684;9.032;2023-08-31T09:15:54;4.47;;;2.25;;
37321;SDS011;23697;48.684;9.032;2023-08-31T09:18:23;7.00;;;2.28;;
37321;SDS011;23697;48.684;9.032;2023-08-31T09:20:54;7.15;;;2.50;;
37321;SDS011;23697;48.684;9.032;2023-08-31T09:23:23;7.18;;;2.60;;
37321;SDS011;23697;48.684;9.032;2023-08-31T09:26:01;6.07;;;2.40;;
37321;SDS011;23697;48.684;9.032;2023-08-31T09:29:08;6.88;;;2.47;;
37321;SDS011;23697;48.684;9.032;2023-08-31T09:31:32;10.80;;;2.88;;
37321;SDS011;23697;48.684;9.032;2023-08-31T09:34:10;7.45;;;2.78;;
37321;SDS011;23697;48.684;9.032;2023-08-31T09:36:51;8.13;;;2.60;;
37321;SDS011;23697;48.684;9.032;2023-08-31T09:42:36;9.55;;;2.30;;
37321;SDS011;23697;48.684;9.032;2023-08-31T09:45:16;6.78;;;2.70;;
37321;SDS011;23697;48.684;9.032;2023-08-31T09:48:47;5.72;;;2.50;;
37321;SDS011;23697;48.684;9.032;2023-08-31T09:58:45;7.30;;;2.42;;
37321;SDS011;23697;48.684;9.032;2023-08-31T10:01:33;7.20;;;2.50;;
37321;SDS011;23697;48.684;9.032;2023-08-31T10:13:44;13.65;;;3.05;;
37321;SDS011;23697;48.684;9.032;2023-08-31T10:19:48;7.07;;;2.42;;
37321;SDS011;23697;48.684;9.032;2023-08-31T10:26:09;6.70;;;2.80;;
37321;SDS011;23697;48.684;9.032;2023-08-31T10:33:05;6.43;;;2.40;;
37321;SDS011;23697;48.684;9.032;2023-08-31T10:46:43;8.80;;;2.72;;
37321;SDS011;23697;48.684;9.032;2023-08-31T10:49:13;6.03;;;2.40;;
37321;SDS011;23697;48.684;9.032;2023-08-31T10:51:43;8.15;;;2.70;;
37321;SDS011;23697;48.684;9.032;2023-08-31T10:54:11;10.63;;;2.85;;
37321;SDS011;23697;48.684;9.032;2023-08-31T10:56:55;6.45;;;2.60;;
37321;SDS011;23697;48.684;9.032;2023-08-31T10:59:44;7.32;;;2.80;;
37321;SDS011;23697;48.684;9.032;2023-08-31T11:05:54;9.70;;;2.85;;
37321;SDS011;23697;48.684;9.032;2023-08-31T11:08:21;7.00;;;2.75;;
37321;SDS011;23697;48.684;9.032;2023-08-31T11:10:52;6.05;;;2.20;;
37321;SDS011;23697;48.684;9.032;2023-08-31T11:13:33;7.65;;;2.53;;
37321;SDS011;23697;48.684;9.032;2023-08-31T11:16:05;7.38;;;2.42;;
37321;SDS011;23697;48.684;9.032;2023-08-31T11:18:36;6.20;;;2.30;;
37321;SDS011;23697;48.684;9.032;2023-08-31T11:21:04;6.80;;;2.30;;
37321;SDS011;23697;48.684;9.032;2023-08-31T11:23:32;6.95;;;2.30;;
37321;SDS011;23697;48.684;9.032;2023-08-31T11:25:59;7.60;;;2.67;;
37321;SDS011;23697;48.684;9.032;2023-08-31T11:28:32;7.90;;;2.50;;
37321;SDS011;23697;48.684;9.032;2023-08-31T11:30:59;8.85;;;2.78;;
37321;SDS011;23697;48.684;9.032;2023-08-31T11:33:31;7.38;;;2.67;;
37321;SDS011;23697;48.684;9.032;2023-08-31T11:36:10;8.38;;;2.70;;
37321;SDS011;23697;48.684;9.032;2023-08-31T11:38:47;7.68;;;2.60;;
37321;SDS011;23697;48.684;9.032;2023-08-31T11:41:15;8.18;;;2.90;;
37321;SDS011;23697;48.684;9.032;2023-08-31T11:43:48;7.28;;;2.60;;
37321;SDS011;23697;48.684;9.032;2023-08-31T11:46:17;7.70;;;2.67;;
37321;SDS011;23697;48.684;9.032;2023-08-31T11:48:50;7.05;;;2.53;;
37321;SDS011;23697;48.684;9.032;2023-08-31T11:51:45;7.35;;;2.22;;
37321;SDS011;23697;48.684;9.032;2023-08-31T11:54:19;7.13;;;2.60;;
37321;SDS011;23697;48.684;9.032;2023-08-31T11:56:52;8.25;;;2.45;;
37321;SDS011;23697;48.684;9.032;2023-08-31T11:59:19;6.70;;;2.47;;
37321;SDS011;23697;48.684;9.032;2023-08-31T12:01:48;7.40;;;2.53;;
37321;SDS011;23697;48.684;9.032;2023-08-31T12:04:19;8.20;;;2.60;;
37321;SDS011;23697;48.684;9.032;2023-08-31T12:07:20;8.07;;;2.47;;
37321;SDS011;23697;48.684;9.032;2023-08-31T12:09:52;5.18;;;2.42;;
37321;SDS011;23697;48.684;9.032;2023-08-31T12:12:33;6.75;;;2.40;;
37321;SDS011;23697;48.684;9.032;2023-08-31T12:15:23;6.50;;;2.35;;
37321;SDS011;23697;48.684;9.032;2023-08-31T12:18:00;5.05;;;2.20;;
37321;SDS011;23697;48.684;9.032;2023-08-31T12:21:00;6.80;;;2.40;;
37321;SDS011;23697;48.684;9.032;2023-08-31T12:23:41;6.25;;;2.50;;
37321;SDS011;23697;48.684;9.032;2023-08-31T12:29:56;7.13;;;2.17;;
37321;SDS011;23697;48.684;9.032;2023-08-31T12:32:40;7.93;;;2.63;;
37321;SDS011;23697;48.684;9.032;2023-08-31T12:35:28;5.85;;;2.50;;
37321;SDS011;23697;48.684;9.032;2023-08-31T12:38:24;6.28;;;2.40;;
37321;SDS011;23697;48.684;9.032;2023-08-31T12:51:17;6.07;;;2.30;;
37321;SDS011;23697;48.684;9.032;2023-08-31T12:53:51;6.68;;;2.95;;
37321;SDS011;23697;48.684;9.032;2023-08-31T12:56:24;6.32;;;3.05;;
37321;SDS011;23697;48.684;9.032;2023-08-31T12:59:09;5.15;;;2.42;;
37321;SDS011;23697;48.684;9.032;2023-08-31T13:01:45;6.18;;;2.25;;
37321;SDS011;23697;48.684;9.032;2023-08-31T13:04:15;6.95;;;2.15;;
37321;SDS011;23697;48.684;9.032;2023-08-31T13:07:16;6.85;;;2.50;;
37321;SDS011;23697;48.684;9.032;2023-08-31T13:12:42;8.18;;;2.50;;
37321;SDS011;23697;48.684;9.032;2023-08-31T13:22:06;7.32;;;2.58;;
37321;SDS011;23697;48.684;9.032;2023-08-31T13:24:33;9.25;;;2.58;;
37321;SDS011;23697;48.684;9.032;2023-08-31T13:27:04;4.30;;;2.10;;
37321;SDS011;23697;48.684;9.032;2023-08-31T13:50:10;24.88;;;6.47;;
37321;SDS011;23697;48.684;9.032;2023-08-31T14:28:03;6.75;;;2.40;;
37321;SDS011;23697;48.684;9.032;2023-08-31T14:31:20;7.80;;;2.50;;
37321;SDS011;23697;48.684;9.032;2023-08-31T14:34:22;5.85;;;2.20;;
37321;SDS011;23697;48.684;9.032;2023-08-31T14:39:31;7.95;;;2.33;;
37321;SDS011;23697;48.684;9.032;2023-08-31T14:40:22;7.13;;;2.25;;
37321;SDS011;23697;48.684;9.032;2023-08-31T15:16:43;8.63;;;2.72;;
